Latest Weather Observations for Thredbo Top Station

IDN60801

Issued at 7:03 pm EST Sunday 5 July 2015 (issued every 30 minutes, with the page automatically refreshed every 10 minutes)

About weather observations | Map of weather stations | Latest weather observations for NSW | Other Formats
Station Details ID: 071032 Name: THREDBO AWS Lat: -36.49 Lon: 148.29 Height: 1957.0 m
Data from the previous 72 hours. | See also: Recent months at Thredbo Top Station
Date/Time
EST
Temp
°C
App
Temp
°C
Dew
Point
Rel
Hum
%
Delta-T
°C
Wind Press
QNH
hPa
Press
MSL
hPa
Rain
since 9 am
mm
Dir
 
Spd
km/h
Gust
km/h
Spd
kts
Gust
kts
05/07:00pm -0.9 -9.6 -3.1 85 0.8 NW 33 41 18 22 - - 0.0
05/06:30pm -0.9 -9.4 -2.9 86 0.7 NW 32 41 17 22 - - 0.0
05/06:00pm -1.0 -9.1 -3.2 85 0.7 NW 30 39 16 21 - - 0.0
05/05:30pm -0.9 -9.0 -3.1 85 0.8 NW 30 37 16 20 - - 0.0
05/05:00pm -0.6 -9.1 -3.1 83 0.9 NW 32 37 17 20 - - 0.0
05/04:30pm -0.1 -8.2 -3.0 81 1.1 NW 30 37 16 20 - - 0.0
05/04:00pm 0.8 -6.9 -2.8 77 1.4 NW 28 35 15 19 - - 0.0
05/03:30pm 1.0 -6.7 -2.9 75 1.5 NW 28 37 15 20 - - 0.0
05/03:00pm 1.6 -5.7 -2.9 72 1.8 NW 26 37 14 20 - - 0.0
05/02:30pm 1.9 -5.0 -2.8 71 1.8 NW 24 33 13 18 - - 0.0
05/02:00pm 1.8 -5.1 -2.9 71 1.8 NW 24 33 13 18 - - 0.0
05/01:30pm 2.1 -5.1 -2.4 72 1.7 NW 26 35 14 19 - - 0.0
05/01:00pm 1.5 -5.7 -1.9 78 1.3 NW 26 32 14 17 - - 0.0
05/12:30pm 2.0 -4.3 -0.9 81 1.1 NW 22 28 12 15 - - 0.0
05/12:00pm 1.5 -4.9 -1.7 79 1.2 NW 22 26 12 14 - - 0.0
05/11:30am 0.8 -6.0 -1.6 84 1.0 NW 24 30 13 16 - - 0.0
05/11:00am 0.8 -6.0 -1.6 84 1.0 WNW 24 32 13 17 - - 0.0
05/10:30am 0.1 -7.8 -1.3 90 0.5 NW 30 37 16 20 - - 0.0
05/10:00am 0.3 -6.8 -1.4 88 0.7 WNW 26 30 14 16 - - 0.0
05/09:30am -0.1 -7.2 -1.2 92 0.4 NW 26 32 14 17 - - 0.0
05/09:00am -0.7 -7.8 -1.4 95 0.2 NW 26 33 14 18 - - 0.0
05/08:30am -0.5 -7.2 -1.2 95 0.2 NW 24 30 13 16 1019.5 1024.5 0.0
05/08:00am -0.8 -7.9 -1.6 94 0.3 NW 26 32 14 17 1019.4 1024.4 0.0
05/07:30am -1.0 -7.8 -1.8 94 0.3 NW 24 30 13 16 1019.4 1024.4 0.0
05/07:00am -1.0 -7.5 -2.1 92 0.4 NW 22 26 12 14 1019.2 1024.3 0.0
05/06:30am -1.2 -7.3 -2.5 91 0.4 NW 20 28 11 15 1019.2 1024.3 0.0
05/05:30am -0.2 -7.0 -1.8 89 0.6 NW 24 30 13 16 1019.0 1024.0 0.0
05/05:00am -0.4 -7.2 -1.5 92 0.4 NW 24 30 13 16 1019.0 1024.0 0.0
05/04:30am -0.7 -7.4 -1.4 95 0.2 NW 24 26 13 14 1019.0 1024.0 0.0
05/04:00am -0.6 -7.1 -2.2 89 0.6 NW 22 28 12 15 1019.0 1024.0 0.0
05/03:30am -0.1 -7.0 -2.6 83 0.9 NW 24 30 13 16 1019.0 1024.0 0.0
05/03:00am 0.1 -7.1 -2.3 84 0.9 NW 26 32 14 17 1019.2 1024.3 0.0
05/02:30am 0.4 -6.5 -2.8 79 1.2 NW 24 30 13 16 1019.4 1024.4 0.0
05/02:00am -0.5 -7.0 -2.7 85 0.8 NW 22 26 12 14 1019.6 1024.6 0.0
05/01:30am -0.5 -7.0 -2.2 88 0.6 NW 22 24 12 13 1019.8 1024.9 0.0
05/01:00am -1.3 -7.2 -2.1 94 0.2 WNW 19 22 10 12 1020.0 1025.1 0.0
05/12:30am -0.6 -4.6 -2.0 90 0.5 WSW 9 13 5 7 1020.2 1025.2 0.0
05/12:00am -0.3 -5.4 -2.0 88 0.6 W 15 19 8 10 1020.2 1025.2 0.0
 
Date/Time
EST
Temp
°C
App
Temp
°C
Dew
Point
Rel
Hum
%
Delta-T
°C
Wind Press
QNH
hPa
Press
MSL
hPa
Rain
since 9 am
mm
Dir
 
Spd
km/h
Gust
km/h
Spd
kts
Gust
kts
04/11:30pm -0.4 -5.5 -1.7 91 0.5 WSW 15 17 8 9 1020.4 1025.4 0.0
04/11:00pm -0.2 -5.9 -0.6 97 0.1 WSW 19 22 10 12 1020.5 1025.6 0.0
04/10:30pm -0.4 -5.7 -0.5 99 0.0 WSW 17 20 9 11 - - 0.0
04/10:00pm -0.2 -4.8 -1.0 94 0.3 SW 13 19 7 10 - - 0.0
04/09:30pm -0.4 -5.3 -0.8 97 0.1 SW 15 22 8 12 - - 0.0
04/09:00pm -0.5 -5.8 -0.6 99 0.0 SW 17 20 9 11 - - 0.0
04/08:30pm -0.4 -6.1 -0.5 99 0.0 SW 19 24 10 13 - - 0.0
04/08:00pm -0.8 -6.7 -0.9 99 0.0 WSW 20 28 11 15 - - 0.0
04/07:30pm -0.6 -6.3 -0.7 99 0.0 WSW 19 24 10 13 - - 0.0
04/07:00pm -0.3 -6.0 -0.7 97 0.1 WSW 19 28 10 15 - - 0.0
04/06:30pm -0.4 -6.7 -0.7 98 0.1 WSW 22 30 12 16 - - 0.0
04/06:00pm -0.2 -6.9 -1.0 94 0.3 WSW 24 30 13 16 - - 0.0
04/05:30pm 0.2 -6.2 -1.9 86 0.8 WSW 22 37 12 20 - - 0.0
04/05:00pm -0.1 -6.1 -1.5 90 0.5 W 20 32 11 17 - - 0.0
04/04:30pm 0.3 -6.1 -1.6 87 0.7 WSW 22 33 12 18 - - 0.0
04/04:00pm 0.2 -6.9 -1.2 90 0.6 WSW 26 35 14 19 - - 0.0
04/03:30pm 0.4 -6.0 -1.5 87 0.8 WSW 22 30 12 16 - - 0.0
04/03:00pm 0.2 -6.1 -1.2 90 0.6 WSW 22 35 12 19 - - 0.0
04/02:30pm 0.1 -7.0 -1.0 92 0.4 WSW 26 35 14 19 - - 0.0
04/02:00pm 0.2 -6.5 -0.9 92 0.4 WSW 24 35 13 19 - - 0.0
04/01:30pm 0.0 -6.7 -1.0 93 0.4 WSW 24 35 13 19 - - 0.0
04/01:00pm 0.1 -7.5 -2.0 86 0.8 WSW 28 39 15 21 - - 0.0
04/12:30pm -0.9 -8.0 -1.3 97 0.1 WSW 26 37 14 20 - - 0.0
04/12:00pm -0.6 -7.7 -1.6 93 0.3 WSW 26 37 14 20 - - 0.0
04/11:30am 1.4 -5.1 -5.7 59 2.5 WSW 20 33 11 18 - - 0.0
04/11:00am 1.5 -5.0 -8.0 49 3.2 WSW 19 24 10 13 - - 0.0
04/10:30am 1.3 -5.5 -9.3 45 3.4 WSW 20 28 11 15 - - 0.0
04/10:00am 0.7 -6.4 -8.5 50 3.0 WSW 22 32 12 17 - - 0.0
04/09:30am -0.2 -8.1 -14.5 33 3.9 W 24 32 13 17 - - 0.0
04/09:00am 0.3 -8.1 -16.5 27 4.4 W 26 37 14 20 - - 0.0
04/08:30am -0.1 -7.9 -13.0 37 3.6 WNW 24 35 13 19 - - 0.0
04/08:00am 1.0 -6.8 -12.7 35 4.0 W 24 33 13 18 1019.6 1024.6 0.0
04/07:30am -0.2 -8.0 -12.8 38 3.6 W 24 30 13 16 1019.6 1024.6 0.0
04/07:00am 0.2 -8.1 -15.3 30 4.1 W 26 33 14 18 1019.4 1024.4 0.0
04/06:30am 0.1 -8.2 -15.8 29 4.2 W 26 33 14 18 1019.0 1024.0 0.0
04/06:00am -0.9 -9.7 -17.1 28 4.0 WNW 28 33 15 18 1019.0 1024.0 0.0
04/05:30am 0.2 -8.7 -20.1 20 4.8 WNW 28 35 15 19 1018.7 1023.7 0.0
04/05:00am 0.0 -8.8 -17.2 26 4.3 WNW 28 33 15 18 1018.7 1023.7 0.0
04/04:30am 0.0 -8.9 -20.8 19 4.8 WNW 28 35 15 19 1018.6 1023.6 0.0
04/04:00am -0.5 -9.9 -23.2 16 4.8 WNW 30 35 16 19 1018.3 1023.3 0.0
04/03:30am -0.3 -10.1 -25.3 13 5.1 WNW 32 41 17 22 1018.6 1023.6 0.0
04/03:00am -1.4 -11.7 -23.2 17 4.5 WNW 35 41 19 22 1019.0 1024.0 0.0
04/02:30am -1.5 -11.8 -23.3 17 4.5 WNW 35 44 19 24 1019.1 1024.1 0.0
04/02:00am -1.0 -10.8 -24.3 15 4.8 WNW 32 43 17 23 1019.5 1024.5 0.0
04/01:30am -2.0 -11.8 -24.4 16 4.4 WNW 32 39 17 21 1019.8 1024.9 0.0
04/01:00am -1.6 -12.0 -26.4 13 4.7 NW 35 41 19 22 1019.9 1025.0 0.0
04/12:30am -1.8 -11.8 -26.5 13 4.7 NW 33 41 18 22 1020.2 1025.2 0.0
04/12:00am -1.3 -12.1 -26.1 13 4.8 NW 37 46 20 25 1020.5 1025.6 0.0
 
Date/Time
EST
Temp
°C
App
Temp
°C
Dew
Point
Rel
Hum
%
Delta-T
°C
Wind Press
QNH
hPa
Press
MSL
hPa
Rain
since 9 am
mm
Dir
 
Spd
km/h
Gust
km/h
Spd
kts
Gust
kts
03/11:30pm -0.8 -11.2 -25.7 13 5.0 NW 35 43 19 23 1020.6 1025.7 0.0
03/11:00pm -1.0 -10.9 -26.7 12 4.9 WNW 32 41 17 22 1020.7 1025.8 0.0
03/10:30pm -0.9 -10.9 -25.8 13 4.9 NW 33 41 18 22 1021.1 1026.2 0.0
03/10:00pm -0.8 -11.2 -26.6 12 5.0 NW 35 44 19 24 1021.3 1026.4 0.0
03/09:30pm -1.4 -11.4 -25.4 14 4.7 NW 33 39 18 21 1021.6 1026.7 0.0
03/09:00pm -2.1 -12.5 -25.2 15 4.5 NW 35 41 19 22 1021.9 1027.0 0.0
03/08:30pm -1.5 -11.3 -26.3 13 4.8 NW 32 37 17 20 1021.9 1027.0 0.0
03/08:00pm -1.9 -11.9 -25.0 15 4.5 WNW 33 37 18 20 1021.8 1026.9 0.0
03/07:30pm -2.0 -11.8 -25.9 14 4.6 NW 32 35 17 19 1022.0 1027.1 0.0
03/07:00pm -2.1 -11.9 -24.5 16 4.4 NW 32 37 17 20 1022.0 1027.1 0.0
03/06:30pm -2.2 -11.6 -23.3 18 4.3 WNW 30 32 16 17 1021.9 1027.0 0.0
03/06:00pm -1.8 -11.2 -24.2 16 4.5 WNW 30 35 16 19 1021.9 1027.0 0.0
03/05:30pm -1.9 -10.9 -23.6 17 4.4 WNW 28 35 15 19 1021.8 1026.9 0.0
03/05:00pm -1.5 -9.8 -24.0 16 4.6 WNW 24 32 13 17 1021.6 1026.7 0.0
03/04:30pm -1.8 -8.3 -21.2 21 4.2 WNW 15 19 8 10 1021.8 1026.9 0.0
03/04:00pm -0.1 -7.4 -24.3 14 5.1 W 19 20 10 11 1021.8 1026.9 0.0
03/03:30pm 0.4 -6.1 -21.1 18 5.0 W 15 19 8 10 1021.6 1026.7 0.0
03/03:00pm 0.7 -5.8 -21.5 17 5.1 W 15 19 8 10 1021.5 1026.6 0.0
03/02:30pm 0.8 -4.9 -22.1 16 5.2 WSW 11 15 6 8 1021.3 1026.4 0.0
03/02:00pm 1.0 -4.4 -22.7 15 5.3 WSW 9 13 5 7 1021.3 1026.4 0.0
03/01:30pm 2.1 -1.7 -16.3 24 5.0 WNW 2 6 1 3 1021.6 1026.7 0.0
03/01:00pm 0.9 -3.1 -13.5 33 4.1 NW 4 7 2 4 1021.9 1027.0 0.0
03/12:30pm -0.7 -5.7 -12.9 39 3.4 NW 9 11 5 6 1022.4 1027.6 0.0
03/12:00pm 0.1 -5.8 -15.8 29 4.2 WNW 13 15 7 8 - - 0.0
03/11:30am 0.4 -5.1 -15.9 28 4.3 WNW 11 15 6 8 - - 0.0
03/11:00am -0.2 -5.4 -18.3 24 4.4 W 9 13 5 7 - - 0.0
03/10:30am 0.1 -4.2 -19.0 22 4.6 WSW 4 7 2 4 - - 0.0
03/10:00am -1.7 -6.7 -14.1 38 3.2 NW 9 15 5 8 - - 0.0
03/09:30am -1.6 -7.6 -19.5 24 4.1 SW 13 17 7 9 - - 0.0
03/09:00am -1.1 -6.7 -17.7 27 4.0 WSW 11 15 6 8 - - 0.0
03/08:30am -1.2 -6.1 -11.3 46 2.9 SW 9 11 5 6 - - 0.0
03/08:00am -2.1 -7.1 -7.8 65 1.7 SW 11 19 6 10 - - 0.0
03/07:30am -2.5 -8.4 -5.3 81 0.8 SW 17 22 9 12 - - 0.0
03/07:00am -3.3 -9.5 -4.7 90 0.3 SW 19 24 10 13 - - 0.0
03/06:30am -2.8 -11.4 -4.1 91 0.3 SSW 32 44 17 24 - - 0.0
03/06:25am -1.3 -10.3 -2.7 90 0.4 SSW 35 44 19 24 - - 0.0
03/06:00am -4.9 -11.2 -5.9 93 0.1 SSW 19 26 10 14 - - 0.0
03/05:30am -6.3 -13.3 -7.1 94 0.0 SW 22 32 12 17 - - 0.0
03/05:00am -6.4 -12.8 -7.3 93 0.0 SSW 19 30 10 16 - - 0.0
03/04:30am -6.3 -12.7 -7.1 94 0.0 SW 19 26 10 14 - - 0.0
03/04:00am -6.6 -13.2 -7.4 94 0.0 SW 20 32 11 17 - - 0.0
03/03:30am -7.7 -15.6 -8.5 94 0.0 SW 26 39 14 21 - - 0.0
03/03:28am -7.6 -15.8 -8.4 94 0.0 SW 28 39 15 21 - - 0.0
03/03:00am -7.5 -12.9 -8.3 94 0.0 SW 13 19 7 10 - - 0.0
03/02:30am -7.2 -12.6 -7.9 95 -0.1 SSW 13 19 7 10 - - 0.0
03/02:00am -7.4 -12.4 -8.2 94 0.0 SSW 11 22 6 12 - - 0.0
03/01:30am -7.4 -12.0 -8.2 94 0.0 SSW 9 20 5 11 - - 0.0
03/01:00am -7.5 -15.0 -8.3 94 0.0 SW 24 35 13 19 - - 0.0
03/12:30am -7.7 -15.6 -8.5 94 0.0 SW 26 37 14 20 - - 0.0
03/12:00am -7.3 -16.5 -8.1 94 0.0 SW 33 43 18 23 - - 0.0
 
Date/Time
EST
Temp
°C
App
Temp
°C
Dew
Point
Rel
Hum
%
Delta-T
°C
Wind Press
QNH
hPa
Press
MSL
hPa
Rain
since 9 am
mm
Dir
 
Spd
km/h
Gust
km/h
Spd
kts
Gust
kts
02/11:30pm -7.2 -15.8 -7.9 95 -0.1 SW 30 41 16 22 - - 0.0
02/11:00pm -6.8 -14.6 -7.5 95 0.0 SW 26 35 14 19 - - 0.0
02/10:30pm -6.5 -13.9 -7.2 95 0.0 SW 24 33 13 18 - - 0.0
02/10:00pm -6.4 -14.5 -6.9 96 -0.1 SW 28 37 15 20 - - 0.0
02/09:30pm -6.5 -15.0 -7.2 95 0.0 SSW 30 41 16 22 - - 0.0
02/09:00pm -7.0 -15.9 -7.7 95 -0.1 SW 32 43 17 23 - - 0.0
02/08:30pm -6.8 -15.0 -7.5 95 0.0 SSW 28 39 15 21 - - 0.0
02/08:00pm -6.9 -13.6 -7.6 95 0.0 SSW 20 33 11 18 - - 0.0
02/07:30pm -6.4 -13.8 -6.9 96 -0.1 SSW 24 41 13 22 - - 0.0
02/07:10pm -6.6 -15.5 -7.3 95 0.0 SSW 32 52 17 28 - - 0.0

Other Formats:

Comma delimited format used in spreadsheet applications
http://www.bom.gov.au/fwo/IDN60801/IDN60801.95909.axf

JavaScript Object Notation format (JSON) in row-major order
http://www.bom.gov.au/fwo/IDN60801/IDN60801.95909.json